SARL

Details ICAO SARL (AOL)
Name PASO DE LOS LIBRES
Region Argentina
Timezone America/Argentina/Cordoba (UTC-3.0)
Plans Departing 0
Arriving 0
Stats Elevation 230 ft / 70 m (AMSL)
Location -29.689424° -57.152076°
Runways 1
Magnetic Variation 12.629° W
Sunrise 2017-12-17 08:44:49 UTC / 2017-12-17 05:44:49 Local
Sunset 2017-12-17 22:47:32 UTC / 2017-12-17 19:47:32 Local
Advertisement - Login to hide

Runways

ID Width Length Bearing (true) Bearing (mag) Surface Threshold Offset Overrun Length
18 147 ft / 45 m 7,446 ft / 2,269 m 170.90° 183.53° Asphalt 230 ft / 70 m 0 ft / 0 m
36 147 ft / 45 m 7,446 ft / 2,269 m 350.90° 3.53° Asphalt 1,010 ft / 308 m 0 ft / 0 m

Map

Weather


0- 5 10 15 20 25 30 35+ Temperature / ° C

Clouds and Precipitation
Forecast for 2017-12-18 00:00 UTC. Updated 30 minutes ago

Ground ~20,000 ft ~40,000 ft Winds

METAR

SARL 172300Z 18019KT CAVOK 22/16 Q1015

TAF

Not found

Frequencies

Tower 120.30 MHz LIBRES TWR/APP
Tower 118.10 MHz LIBRES TWR/APP
Tower 118.50 MHz LIBRES TWR/APP
Warning: Do not use this data for real-world aviation or navigation. No guarantee of current accuracy is given.